createdAt,value
2023-05-19T03:45:40.801Z,89.80
2023-05-19T03:48:07.968Z,90.00
2023-05-19T03:50:35.094Z,89.80
2023-05-19T03:53:02.160Z,90.10
2023-05-19T03:55:29.921Z,90.00
2023-05-19T03:57:57.143Z,89.90
2023-05-19T04:00:24.708Z,90.00
2023-05-19T04:02:51.767Z,90.00
2023-05-19T04:05:18.866Z,90.00
2023-05-19T04:07:46.676Z,90.10
2023-05-19T04:10:13.969Z,90.10
2023-05-19T04:12:40.955Z,90.10
2023-05-19T04:15:08.162Z,90.20
2023-05-19T04:17:35.382Z,90.10
2023-05-19T04:20:02.531Z,90.20
2023-05-19T04:22:29.481Z,90.10
2023-05-19T04:24:56.458Z,90.30
2023-05-19T04:27:23.557Z,90.60
2023-05-19T04:29:50.541Z,90.30
2023-05-19T04:32:17.702Z,90.30
2023-05-19T04:34:47.646Z,90.30
2023-05-19T04:37:16.182Z,90.40
2023-05-19T04:39:44.293Z,90.30
2023-05-19T04:42:11.804Z,90.30
2023-05-19T04:44:40.326Z,90.30
2023-05-19T04:47:11.067Z,90.30
2023-05-19T04:49:41.078Z,90.30
2023-05-19T04:52:10.711Z,90.30
2023-05-19T04:54:37.939Z,90.50
2023-05-19T04:57:05.528Z,90.40
2023-05-19T04:59:32.746Z,90.30
2023-05-19T05:01:59.808Z,90.30
2023-05-19T05:04:26.792Z,90.30
2023-05-19T05:06:53.727Z,90.40
2023-05-19T05:09:21.029Z,90.40
2023-05-19T05:11:48.160Z,90.40
2023-05-19T05:14:15.515Z,90.40
2023-05-19T05:16:43.444Z,90.40
2023-05-19T05:19:10.752Z,90.20
2023-05-19T05:21:37.834Z,90.40
2023-05-19T05:24:05.274Z,90.60
2023-05-19T05:26:33.589Z,90.60
2023-05-19T05:29:00.759Z,90.60
2023-05-19T05:31:27.752Z,90.60
2023-05-19T05:33:54.793Z,90.60
2023-05-19T05:36:21.776Z,90.50
2023-05-19T05:38:48.752Z,90.50
2023-05-19T05:41:15.764Z,90.60
2023-05-19T05:43:42.754Z,90.70
2023-05-19T05:46:09.797Z,90.70
2023-05-19T05:48:36.882Z,90.70
2023-05-19T05:51:04.090Z,90.60
2023-05-19T05:53:32.238Z,90.70
2023-05-19T05:55:59.422Z,90.70
2023-05-19T05:58:26.368Z,90.60
2023-05-19T06:00:57.596Z,90.70
2023-05-19T06:03:24.889Z,90.80
2023-05-19T06:05:52.000Z,90.70
2023-05-19T06:08:19.067Z,90.70
2023-05-19T06:10:47.367Z,90.80
2023-05-19T06:13:17.868Z,90.80
2023-05-19T06:15:45.124Z,90.70
2023-05-19T06:18:12.182Z,90.80
2023-05-19T06:20:39.172Z,90.80
2023-05-19T06:23:06.155Z,90.90
2023-05-19T06:25:33.318Z,90.90
2023-05-19T06:28:00.451Z,90.80
2023-05-19T06:30:27.415Z,90.90
2023-05-19T06:32:54.431Z,90.90
2023-05-19T06:35:21.404Z,90.90
2023-05-19T06:37:48.432Z,90.90
2023-05-19T06:40:15.613Z,91.00
2023-05-19T06:42:42.587Z,91.00
2023-05-19T06:45:09.914Z,91.00
2023-05-19T06:47:37.044Z,90.90
2023-05-19T06:50:04.197Z,91.00
2023-05-19T06:52:31.176Z,90.90
2023-05-19T06:54:58.112Z,90.90
2023-05-19T06:57:25.107Z,91.00
2023-05-19T06:59:52.144Z,91.10
2023-05-19T07:02:19.208Z,91.10
2023-05-19T07:04:47.382Z,91.10
2023-05-19T07:07:14.357Z,91.10
2023-05-19T07:09:41.402Z,91.40
2023-05-19T07:12:08.338Z,91.20
2023-05-19T07:14:36.536Z,91.00
2023-05-19T07:17:03.582Z,91.20
2023-05-19T07:19:30.706Z,91.10
2023-05-19T07:21:59.295Z,91.10
2023-05-19T07:24:27.947Z,91.20
2023-05-19T07:26:55.142Z,91.10
2023-05-19T07:29:22.177Z,91.40
2023-05-19T07:31:53.948Z,91.00
2023-05-19T07:34:21.881Z,90.80
2023-05-19T07:36:48.888Z,91.20
2023-05-19T07:39:16.196Z,91.30
2023-05-19T07:41:43.335Z,91.30
2023-05-19T07:44:10.799Z,91.20
2023-05-19T07:46:38.044Z,91.10
2023-05-19T07:49:05.157Z,91.20
2023-05-19T07:51:32.174Z,91.10
2023-05-19T07:53:59.248Z,91.00
2023-05-19T07:56:26.173Z,91.10
2023-05-19T07:58:53.170Z,91.40
2023-05-19T08:01:20.108Z,91.50
2023-05-19T08:03:47.177Z,91.30
2023-05-19T08:06:14.337Z,91.20
2023-05-19T08:08:42.109Z,91.10
2023-05-19T08:11:09.056Z,91.20
2023-05-19T08:13:36.084Z,91.10
2023-05-19T08:16:03.861Z,90.90
2023-05-19T08:18:31.044Z,91.20
2023-05-19T08:20:58.524Z,91.20
2023-05-19T08:23:25.542Z,91.10
2023-05-19T08:25:52.597Z,91.00
2023-05-19T08:28:19.576Z,91.00
2023-05-19T08:30:46.684Z,91.20
2023-05-19T08:33:13.705Z,91.10
2023-05-19T08:35:40.893Z,91.50
2023-05-19T08:38:08.048Z,91.30
2023-05-19T08:40:37.419Z,91.50
2023-05-19T08:43:04.587Z,91.40
2023-05-19T08:45:34.419Z,91.10
2023-05-19T08:48:02.679Z,91.20
2023-05-19T08:50:30.717Z,91.30
2023-05-19T08:52:58.160Z,91.20
2023-05-19T08:55:36.566Z,91.20
2023-05-19T08:58:04.423Z,91.30
2023-05-19T09:00:31.792Z,91.20
2023-05-19T09:03:06.544Z,91.30
2023-05-19T09:05:44.584Z,91.10
2023-05-19T09:08:11.614Z,91.00
2023-05-19T09:10:38.567Z,91.00
2023-05-19T09:13:05.807Z,91.10
2023-05-19T09:15:33.900Z,90.90
2023-05-19T09:18:11.234Z,91.40
2023-05-19T09:20:41.895Z,90.90
2023-05-19T09:23:13.687Z,90.80
2023-05-19T09:25:48.221Z,91.10
2023-05-19T09:28:15.835Z,91.20
2023-05-19T09:30:42.817Z,91.10
2023-05-19T09:33:10.116Z,91.10
2023-05-19T09:35:37.305Z,90.90
2023-05-19T09:38:04.290Z,90.80
2023-05-19T09:40:32.177Z,90.90
2023-05-19T09:42:59.205Z,91.00
2023-05-19T09:45:28.771Z,90.80
2023-05-19T09:47:55.801Z,91.00
2023-05-19T09:50:22.866Z,90.90
2023-05-19T09:52:50.247Z,91.00
2023-05-19T09:55:18.541Z,91.10
2023-05-19T09:57:46.225Z,91.30
2023-05-19T10:00:13.450Z,90.90
2023-05-19T10:02:41.724Z,90.70
2023-05-19T10:05:10.760Z,90.80
2023-05-19T10:07:38.419Z,91.10
2023-05-19T10:10:08.284Z,91.10
2023-05-19T10:12:35.881Z,90.90
2023-05-19T10:15:02.852Z,90.90
2023-05-19T10:17:30.363Z,90.90
2023-05-19T10:19:57.956Z,90.80
2023-05-19T10:22:24.986Z,90.70
2023-05-19T10:24:51.970Z,90.70
2023-05-19T10:27:19.316Z,90.60
2023-05-19T10:29:48.944Z,90.80
2023-05-19T10:32:23.032Z,90.70
2023-05-19T10:34:57.129Z,90.90
2023-05-19T10:37:42.864Z,90.90
2023-05-19T10:40:13.715Z,90.90
2023-05-19T10:42:44.105Z,90.80
2023-05-19T10:45:17.906Z,91.10
2023-05-19T10:47:44.938Z,90.40
2023-05-19T10:50:12.152Z,90.60
2023-05-19T10:52:40.053Z,90.60
2023-05-19T10:55:08.645Z,90.90
2023-05-19T10:57:36.662Z,90.80
2023-05-19T11:00:11.611Z,90.70
2023-05-19T11:02:42.915Z,90.10
2023-05-19T11:05:12.750Z,90.20
2023-05-19T11:07:44.341Z,90.00
2023-05-19T11:10:11.651Z,90.20
2023-05-19T11:12:43.052Z,90.10
2023-05-19T11:15:11.679Z,90.20
2023-05-19T11:17:39.818Z,90.30
2023-05-19T11:20:08.063Z,90.20
2023-05-19T11:22:36.309Z,90.00
2023-05-19T11:25:04.100Z,90.20
2023-05-19T11:27:32.633Z,90.30
2023-05-19T11:30:11.403Z,90.00
2023-05-19T11:32:44.340Z,90.10
2023-05-19T11:35:11.555Z,90.10
2023-05-19T11:37:40.430Z,89.20
2023-05-19T11:40:07.683Z,89.40
2023-05-19T11:42:36.059Z,90.00
2023-05-19T11:45:03.679Z,90.10
2023-05-19T11:47:38.799Z,89.40
2023-05-19T11:50:14.384Z,89.20
2023-05-19T11:52:44.709Z,89.50
2023-05-19T11:55:15.447Z,89.40
2023-05-19T11:58:03.083Z,89.00
2023-05-19T12:00:37.023Z,88.90
2023-05-19T12:03:04.366Z,89.20
2023-05-19T12:05:34.429Z,88.90
2023-05-19T12:08:03.378Z,88.90
2023-05-19T12:10:31.442Z,89.50
2023-05-19T12:12:59.210Z,89.30
2023-05-19T12:15:26.311Z,89.30
2023-05-19T12:17:57.403Z,89.70
2023-05-19T12:20:25.116Z,89.90
2023-05-19T12:22:52.816Z,89.50
2023-05-19T12:25:20.238Z,90.00
2023-05-19T12:27:49.441Z,89.70
2023-05-19T12:30:16.836Z,88.80
2023-05-19T12:32:44.061Z,89.30
2023-05-19T12:35:11.606Z,89.10
2023-05-19T12:37:41.689Z,88.80
2023-05-19T12:40:09.427Z,88.60
2023-05-19T12:42:37.725Z,88.90
2023-05-19T12:45:04.942Z,89.00
2023-05-19T12:47:35.250Z,88.70
2023-05-19T12:50:09.336Z,88.90
2023-05-19T12:52:46.680Z,89.90
2023-05-19T12:55:14.534Z,89.00
2023-05-19T12:57:42.727Z,89.10
2023-05-19T13:00:17.604Z,89.00
2023-05-19T13:03:05.115Z,89.00
2023-05-19T13:05:33.893Z,89.30
2023-05-19T13:08:02.321Z,89.30
2023-05-19T13:10:29.639Z,89.50
2023-05-19T13:12:57.134Z,90.00
2023-05-19T13:15:26.141Z,89.90
2023-05-19T13:17:53.589Z,90.00
2023-05-19T13:20:21.625Z,90.00
2023-05-19T13:22:48.785Z,90.30
2023-05-19T13:25:16.265Z,90.10
2023-05-19T13:27:44.363Z,90.00
2023-05-19T13:30:11.594Z,89.50
2023-05-19T13:32:38.620Z,89.40
2023-05-19T13:35:05.831Z,90.00
2023-05-19T13:37:33.531Z,90.20
2023-05-19T13:40:00.625Z,90.10
2023-05-19T13:42:28.087Z,90.00
2023-05-19T13:44:56.050Z,90.40
2023-05-19T13:47:23.363Z,90.40
2023-05-19T13:49:50.784Z,90.20
2023-05-19T13:52:17.976Z,90.30
2023-05-19T13:54:45.106Z,90.60
2023-05-19T13:57:12.279Z,90.70
2023-05-19T13:59:49.016Z,90.50
2023-05-19T14:02:24.567Z,90.30
2023-05-19T14:04:51.664Z,90.50
2023-05-19T14:07:19.524Z,90.00
2023-05-19T14:09:46.571Z,89.40
2023-05-19T14:12:13.894Z,90.00
2023-05-19T14:14:40.913Z,89.70
2023-05-19T14:17:07.893Z,90.10
2023-05-19T14:19:34.900Z,89.00
2023-05-19T14:22:01.855Z,88.30
2023-05-19T14:24:28.783Z,90.00
2023-05-19T14:26:55.885Z,89.70
2023-05-19T14:29:22.856Z,89.10
2023-05-19T14:31:49.902Z,89.20
2023-05-19T14:34:20.745Z,88.90
2023-05-19T14:36:48.698Z,89.40
2023-05-19T14:39:15.972Z,89.50
2023-05-19T14:41:42.953Z,90.00
2023-05-19T14:44:09.902Z,89.60
2023-05-19T14:46:37.155Z,89.30
2023-05-19T14:49:06.322Z,89.40
2023-05-19T14:51:33.312Z,89.90
2023-05-19T14:54:01.994Z,90.20
2023-05-19T14:56:29.016Z,90.00
2023-05-19T14:58:56.393Z,89.40
2023-05-19T15:01:23.576Z,88.80
2023-05-19T15:03:50.725Z,89.10
2023-05-19T15:06:17.745Z,89.60
2023-05-19T15:08:45.503Z,89.40
2023-05-19T15:11:12.481Z,89.90
2023-05-19T15:13:39.498Z,89.90
2023-05-19T15:16:17.288Z,89.90
2023-05-19T15:18:45.426Z,90.00
2023-05-19T15:21:12.531Z,89.20
2023-05-19T15:23:39.501Z,89.30
2023-05-19T15:26:06.739Z,90.00
2023-05-19T15:28:34.210Z,90.00
2023-05-19T15:31:01.294Z,89.40
2023-05-19T15:33:28.373Z,90.00
2023-05-19T15:35:55.399Z,89.50
2023-05-19T15:38:22.422Z,89.30
2023-05-19T15:40:49.395Z,89.10
2023-05-19T15:43:17.351Z,89.00
2023-05-19T15:45:44.331Z,88.80
2023-05-19T15:48:11.434Z,88.80
2023-05-19T15:50:38.606Z,88.80
2023-05-19T15:53:07.697Z,89.00
2023-05-19T15:55:34.767Z,89.20
2023-05-19T15:58:01.756Z,88.80
2023-05-19T16:00:28.710Z,89.10
2023-05-19T16:02:55.863Z,89.00
2023-05-19T16:05:22.959Z,89.80
2023-05-19T16:07:49.938Z,90.00
2023-05-19T16:10:16.956Z,89.60
2023-05-19T16:12:43.922Z,89.40
2023-05-19T16:15:10.979Z,89.30
2023-05-19T16:17:38.057Z,90.00
2023-05-19T16:20:05.518Z,89.50
2023-05-19T16:22:32.649Z,89.10
2023-05-19T16:24:59.628Z,89.50
2023-05-19T16:27:26.771Z,89.50
2023-05-19T16:29:54.882Z,90.00
2023-05-19T16:32:22.463Z,89.50
2023-05-19T16:34:49.562Z,90.00
2023-05-19T16:37:16.522Z,90.30
2023-05-19T16:39:43.938Z,89.60
2023-05-19T16:42:11.004Z,89.50
2023-05-19T16:44:37.959Z,89.20
2023-05-19T16:47:04.968Z,89.30
2023-05-19T16:49:33.483Z,89.10
2023-05-19T16:52:00.701Z,89.50
2023-05-19T16:54:28.409Z,89.80
2023-05-19T16:56:55.368Z,89.70
2023-05-19T16:59:22.358Z,89.80
2023-05-19T17:01:49.924Z,89.60
2023-05-19T17:04:16.951Z,89.60
2023-05-19T17:06:43.990Z,89.70
2023-05-19T17:09:10.954Z,89.90
2023-05-19T17:11:37.965Z,89.90
2023-05-19T17:14:08.052Z,90.00
2023-05-19T17:16:35.741Z,89.80
2023-05-19T17:19:03.428Z,89.60
2023-05-19T17:21:31.830Z,89.40
2023-05-19T17:23:58.919Z,89.70
2023-05-19T17:26:26.480Z,90.00
2023-05-19T17:28:53.441Z,90.00
2023-05-19T17:31:20.606Z,90.00
2023-05-19T17:33:47.697Z,89.30
2023-05-19T17:36:14.718Z,89.60
2023-05-19T17:38:41.910Z,90.00
2023-05-19T17:41:09.942Z,90.00
2023-05-19T17:43:37.649Z,90.00
2023-05-19T17:46:05.021Z,89.90
2023-05-19T17:48:32.115Z,90.00
2023-05-19T17:50:59.626Z,90.10
2023-05-19T17:53:26.822Z,90.30
2023-05-19T17:55:58.111Z,90.20
2023-05-19T17:58:25.773Z,90.20
2023-05-19T18:00:53.944Z,90.10
2023-05-19T18:03:21.689Z,90.20
2023-05-19T18:05:49.222Z,90.20
2023-05-19T18:08:16.694Z,90.20
2023-05-19T18:10:43.919Z,90.10
2023-05-19T18:13:11.389Z,90.20
2023-05-19T18:15:38.603Z,90.30
2023-05-19T18:18:07.482Z,90.40
2023-05-19T18:20:35.050Z,90.40
2023-05-19T18:23:02.623Z,90.30
2023-05-19T18:25:29.740Z,90.20
2023-05-19T18:27:56.810Z,90.20
2023-05-19T18:30:23.881Z,90.40
2023-05-19T18:32:50.869Z,90.50
2023-05-19T18:35:17.936Z,90.50
2023-05-19T18:37:44.900Z,90.40
2023-05-19T18:40:11.871Z,90.50
2023-05-19T18:42:38.917Z,90.50
2023-05-19T18:45:06.431Z,90.40
2023-05-19T18:47:33.484Z,90.40
2023-05-19T18:50:00.523Z,90.50
2023-05-19T18:52:28.601Z,90.50
2023-05-19T18:54:55.834Z,90.60
2023-05-19T18:57:22.799Z,90.60
2023-05-19T18:59:49.743Z,90.50
2023-05-19T19:02:16.692Z,90.50
2023-05-19T19:04:45.342Z,90.50
2023-05-19T19:07:12.366Z,90.50
2023-05-19T19:09:43.439Z,90.60
2023-05-19T19:12:10.795Z,90.60
2023-05-19T19:14:38.456Z,90.70
2023-05-19T19:17:05.569Z,90.70
2023-05-19T19:19:32.867Z,90.70
2023-05-19T19:21:59.932Z,90.70
2023-05-19T19:24:28.398Z,90.80
2023-05-19T19:26:55.497Z,90.90
2023-05-19T19:29:22.502Z,90.90
2023-05-19T19:31:49.552Z,91.00
2023-05-19T19:34:19.684Z,90.90
2023-05-19T19:36:47.764Z,91.00
2023-05-19T19:39:14.803Z,91.00
2023-05-19T19:41:41.883Z,91.00
2023-05-19T19:44:08.986Z,91.20
2023-05-19T19:46:36.128Z,91.10
2023-05-19T19:49:03.578Z,91.10
2023-05-19T19:51:31.488Z,91.10
2023-05-19T19:53:58.711Z,91.00
2023-05-19T19:56:27.357Z,91.10
2023-05-19T19:58:56.927Z,91.10
2023-05-19T20:01:27.952Z,91.20
2023-05-19T20:03:55.580Z,91.30
2023-05-19T20:06:23.019Z,91.30
2023-05-19T20:08:50.444Z,91.30
2023-05-19T20:11:17.595Z,91.50
2023-05-19T20:13:44.653Z,91.40
2023-05-19T20:16:11.782Z,91.40
2023-05-19T20:18:39.681Z,91.30
2023-05-19T20:21:06.762Z,91.40
2023-05-19T20:23:33.853Z,91.20
2023-05-19T20:26:11.891Z,91.30
2023-05-19T20:28:39.951Z,91.20
2023-05-19T20:31:07.370Z,91.30
2023-05-19T20:33:34.650Z,91.30
2023-05-19T20:36:01.635Z,91.40
2023-05-19T20:38:28.641Z,91.40
2023-05-19T20:40:55.624Z,91.40
2023-05-19T20:43:22.678Z,91.30
2023-05-19T20:45:49.789Z,91.40
2023-05-19T20:48:16.801Z,91.70
2023-05-19T20:50:43.855Z,91.40
2023-05-19T20:53:10.967Z,91.50
2023-05-19T20:55:41.176Z,91.60
2023-05-19T20:58:08.193Z,91.70
2023-05-19T21:00:35.376Z,91.60
2023-05-19T21:03:02.638Z,91.60
2023-05-19T21:05:29.769Z,91.70
2023-05-19T21:07:56.738Z,91.60
2023-05-19T21:10:23.821Z,91.60
2023-05-19T21:12:51.037Z,91.60
2023-05-19T21:15:18.151Z,91.60
2023-05-19T21:17:45.213Z,91.50
2023-05-19T21:20:12.341Z,91.60
2023-05-19T21:22:40.792Z,91.60
2023-05-19T21:25:07.977Z,91.60
2023-05-19T21:27:36.205Z,91.60
2023-05-19T21:30:03.326Z,91.60
2023-05-19T21:32:30.478Z,91.70
2023-05-19T21:34:57.494Z,91.80
2023-05-19T21:37:24.520Z,91.70
2023-05-19T21:39:51.571Z,91.60
2023-05-19T21:42:18.667Z,91.60
2023-05-19T21:44:45.633Z,91.70
2023-05-19T21:47:12.587Z,91.50
2023-05-19T21:49:40.569Z,91.60
2023-05-19T21:52:07.884Z,91.70
2023-05-19T21:54:36.062Z,91.60
2023-05-19T21:57:03.100Z,91.70
2023-05-19T21:59:30.538Z,91.60
2023-05-19T22:01:58.257Z,91.70
2023-05-19T22:04:25.576Z,91.60
2023-05-19T22:06:52.587Z,91.60
2023-05-19T22:09:19.621Z,91.60
2023-05-19T22:11:46.611Z,91.60
2023-05-19T22:14:13.760Z,91.70
2023-05-19T22:16:41.041Z,91.70
2023-05-19T22:19:08.256Z,91.70
2023-05-19T22:21:35.450Z,91.80
2023-05-19T22:24:02.558Z,91.80
2023-05-19T22:26:29.587Z,91.70
2023-05-19T22:28:56.924Z,91.70
2023-05-19T22:31:24.027Z,91.80
2023-05-19T22:33:51.097Z,91.70
2023-05-19T22:36:18.272Z,91.70
2023-05-19T22:38:45.504Z,91.80
2023-05-19T22:41:12.499Z,91.70
2023-05-19T22:43:39.947Z,92.00
2023-05-19T22:46:07.042Z,91.70
2023-05-19T22:48:34.040Z,91.70
2023-05-19T22:51:01.010Z,91.80
2023-05-19T22:53:27.995Z,91.80
2023-05-19T22:55:54.965Z,91.80
2023-05-19T22:58:21.911Z,91.80
2023-05-19T23:00:48.905Z,91.70
2023-05-19T23:03:16.319Z,91.80
2023-05-19T23:05:43.549Z,91.80
2023-05-19T23:08:10.655Z,91.90
2023-05-19T23:10:37.822Z,91.80
2023-05-19T23:13:04.822Z,91.90
2023-05-19T23:15:32.649Z,91.80
2023-05-19T23:18:01.186Z,91.80
2023-05-19T23:20:28.252Z,91.60
2023-05-19T23:22:55.389Z,91.70
2023-05-19T23:25:22.365Z,91.80
2023-05-19T23:27:49.409Z,91.80
